createdAt,value
2022-10-13T00:00:55.465Z,100506.23
2022-10-13T00:03:22.223Z,100513.45
2022-10-13T00:05:49.568Z,100515.46
2022-10-13T00:08:19.375Z,100517.41
2022-10-13T00:10:47.478Z,100518.60
2022-10-13T00:13:14.341Z,100513.13
2022-10-13T00:15:41.334Z,100511.84
2022-10-13T00:18:08.170Z,100517.37
2022-10-13T00:20:34.943Z,100516.34
2022-10-13T00:23:01.707Z,100516.36
2022-10-13T00:25:28.366Z,100510.70
2022-10-13T00:27:55.015Z,100511.59
2022-10-13T00:30:23.242Z,100509.80
2022-10-13T00:32:50.443Z,100509.95
2022-10-13T00:35:17.299Z,100506.54
2022-10-13T00:37:43.878Z,100508.64
2022-10-13T00:40:11.258Z,100509.81
2022-10-13T00:42:40.825Z,100513.19
2022-10-13T00:45:29.527Z,100510.82
2022-10-13T00:47:57.943Z,100507.25
2022-10-13T00:50:27.772Z,100513.20
2022-10-13T00:52:54.798Z,100501.84
2022-10-13T00:55:23.014Z,100503.13
2022-10-13T00:57:54.603Z,100503.76
2022-10-13T01:00:25.664Z,100499.64
2022-10-13T01:02:52.405Z,100505.60
2022-10-13T01:05:19.784Z,100500.57
2022-10-13T01:07:49.300Z,100502.69
2022-10-13T01:10:27.950Z,100502.65
2022-10-13T01:13:02.093Z,100498.58
2022-10-13T01:15:35.837Z,100498.63
2022-10-13T01:18:10.418Z,100497.63
2022-10-13T01:20:47.859Z,100500.52
2022-10-13T01:23:27.676Z,100494.61
2022-10-13T01:26:24.850Z,100496.81
2022-10-13T01:29:22.922Z,100489.19
2022-10-13T01:31:59.367Z,100490.91
2022-10-13T01:34:44.542Z,100491.24
2022-10-13T01:37:16.671Z,100492.57
2022-10-13T01:40:04.423Z,100496.53
2022-10-13T01:42:43.092Z,100490.05
2022-10-13T01:45:12.534Z,100487.48
2022-10-13T01:47:39.186Z,100492.19
2022-10-13T01:50:06.801Z,100492.19
2022-10-13T01:52:35.985Z,100492.58
2022-10-13T01:55:10.341Z,100490.86
2022-10-13T01:57:39.566Z,100493.23
2022-10-13T02:00:17.109Z,100487.54
2022-10-13T02:03:08.648Z,100491.16
2022-10-13T02:05:43.922Z,100489.52
2022-10-13T02:08:13.065Z,100488.61
2022-10-13T02:10:52.836Z,100487.68
2022-10-13T02:13:20.205Z,100488.61
2022-10-13T02:15:49.308Z,100493.61
2022-10-13T02:18:18.900Z,100487.72
2022-10-13T02:20:46.042Z,100485.31
2022-10-13T02:23:14.303Z,100485.71
2022-10-13T02:25:40.971Z,100488.09
2022-10-13T02:28:07.677Z,100484.56
2022-10-13T02:30:42.199Z,100485.98
2022-10-13T02:33:08.908Z,100495.86
2022-10-13T02:35:37.461Z,100500.52
2022-10-13T02:38:04.268Z,100497.69
2022-10-13T02:40:31.008Z,100500.08
2022-10-13T02:42:57.639Z,100498.94
2022-10-13T02:45:24.591Z,100493.84
2022-10-13T02:47:55.744Z,100488.86
2022-10-13T02:50:22.474Z,100489.87
2022-10-13T02:52:50.279Z,100489.17
2022-10-13T02:55:16.978Z,100488.42
2022-10-13T02:57:43.969Z,100492.56
2022-10-13T03:00:11.526Z,100491.45
2022-10-13T03:02:38.183Z,100486.20
2022-10-13T03:05:05.281Z,100485.13
2022-10-13T03:07:31.936Z,100486.80
2022-10-13T03:09:58.587Z,100485.33
2022-10-13T03:12:25.259Z,100484.81
2022-10-13T03:14:51.921Z,100479.20
2022-10-13T03:17:18.647Z,100481.54
2022-10-13T03:19:45.362Z,100482.20
2022-10-13T03:22:15.395Z,100482.54
2022-10-13T03:24:42.514Z,100478.08
2022-10-13T03:27:09.337Z,100481.31
2022-10-13T03:29:35.910Z,100481.27
2022-10-13T03:32:02.642Z,100479.73
2022-10-13T03:34:29.426Z,100478.60
2022-10-13T03:36:56.079Z,100479.11
2022-10-13T03:39:22.741Z,100479.23
2022-10-13T03:41:49.755Z,100478.86
2022-10-13T03:44:16.447Z,100478.56
2022-10-13T03:46:43.158Z,100479.81
2022-10-13T03:49:11.340Z,100487.25
2022-10-13T03:51:38.367Z,100483.08
2022-10-13T03:54:05.088Z,100482.83
2022-10-13T03:56:31.860Z,100486.25
2022-10-13T03:58:59.090Z,100491.96
2022-10-13T04:01:28.029Z,100490.25
2022-10-13T04:03:55.748Z,100490.28
2022-10-13T04:06:22.944Z,100496.16
2022-10-13T04:08:49.764Z,100495.12
2022-10-13T04:11:16.479Z,100500.29
2022-10-13T04:13:43.402Z,100497.90
2022-10-13T04:16:13.641Z,100495.40
2022-10-13T04:18:44.450Z,100497.70
2022-10-13T04:21:13.415Z,100501.92
2022-10-13T04:23:40.082Z,100502.71
2022-10-13T04:26:06.796Z,100505.09
2022-10-13T04:28:37.369Z,100500.34
2022-10-13T04:31:04.262Z,100497.67
2022-10-13T04:33:30.851Z,100495.38
2022-10-13T04:35:57.692Z,100497.30
2022-10-13T04:38:24.387Z,100497.48
2022-10-13T04:40:51.167Z,100495.90
2022-10-13T04:45:12.174Z,100493.89
2022-10-13T04:47:40.277Z,100495.46
2022-10-13T04:50:07.101Z,100498.64
2022-10-13T04:52:34.979Z,100506.02
2022-10-13T04:55:04.168Z,100504.88
2022-10-13T04:57:30.833Z,100511.42
2022-10-13T04:59:57.540Z,100510.09
2022-10-13T05:02:24.206Z,100506.05
2022-10-13T05:04:50.893Z,100504.38
2022-10-13T05:07:18.919Z,100504.84
2022-10-13T05:09:46.711Z,100503.27
2022-10-13T05:12:13.389Z,100507.59
2022-10-13T05:14:40.060Z,100515.09
2022-10-13T05:17:07.601Z,100525.80
2022-10-13T05:19:34.345Z,100528.94
2022-10-13T05:22:01.080Z,100531.33
2022-10-13T05:24:36.769Z,100529.41
2022-10-13T05:27:05.682Z,100530.13
2022-10-13T05:29:34.674Z,100531.08
2022-10-13T05:32:01.365Z,100532.14
2022-10-13T05:34:28.058Z,100531.89
2022-10-13T05:36:54.718Z,100535.73
2022-10-13T05:39:21.506Z,100536.61
2022-10-13T05:41:48.118Z,100534.97
2022-10-13T05:44:20.267Z,100534.34
2022-10-13T05:46:53.353Z,100537.80
2022-10-13T05:49:19.973Z,100536.22
2022-10-13T05:51:48.061Z,100540.76
2022-10-13T05:54:34.163Z,100539.97
2022-10-13T05:57:14.852Z,100540.61
2022-10-13T05:59:44.335Z,100538.90
2022-10-13T06:02:12.198Z,100539.11
2022-10-13T06:04:41.565Z,100536.65
2022-10-13T06:07:08.348Z,100535.45
2022-10-13T06:09:36.304Z,100538.12
2022-10-13T06:12:03.233Z,100535.70
2022-10-13T06:14:30.334Z,100534.77
2022-10-13T06:16:57.009Z,100536.52
2022-10-13T06:19:23.754Z,100538.33
2022-10-13T06:21:50.360Z,100537.52
2022-10-13T06:24:17.152Z,100541.29
2022-10-13T06:26:43.825Z,100537.98
2022-10-13T06:29:10.667Z,100540.77
2022-10-13T06:31:37.532Z,100547.44
2022-10-13T06:34:04.209Z,100543.56
2022-10-13T06:36:31.531Z,100538.26
2022-10-13T06:38:58.648Z,100543.34
2022-10-13T06:41:25.502Z,100548.73
2022-10-13T06:43:52.149Z,100543.29
2022-10-13T06:46:21.108Z,100544.61
2022-10-13T06:48:51.195Z,100548.51
2022-10-13T06:51:17.981Z,100550.61
2022-10-13T06:53:45.121Z,100548.38
2022-10-13T06:56:11.727Z,100550.11
2022-10-13T06:58:38.583Z,100549.38
2022-10-13T07:01:05.463Z,100549.40
2022-10-13T07:03:32.451Z,100551.54
2022-10-13T07:06:02.931Z,100558.26
2022-10-13T07:08:29.924Z,100553.16
2022-10-13T07:10:56.935Z,100556.28
2022-10-13T07:13:23.656Z,100552.98
2022-10-13T07:15:50.546Z,100549.59
2022-10-13T07:18:17.234Z,100548.77
2022-10-13T07:20:44.654Z,100545.37
2022-10-13T07:23:11.346Z,100545.67
2022-10-13T07:25:38.063Z,100543.73
2022-10-13T07:28:05.220Z,100541.49
2022-10-13T07:30:31.826Z,100542.34
2022-10-13T07:33:00.094Z,100541.09
2022-10-13T07:35:30.512Z,100539.66
2022-10-13T07:37:57.994Z,100538.17
2022-10-13T07:40:24.870Z,100542.10
2022-10-13T07:42:51.661Z,100550.29
2022-10-13T07:45:18.309Z,100548.92
2022-10-13T07:47:45.122Z,100543.16
2022-10-13T07:50:11.933Z,100546.15
2022-10-13T07:52:38.813Z,100547.47
2022-10-13T07:55:05.666Z,100546.05
2022-10-13T07:57:39.615Z,100553.34
2022-10-13T08:00:06.904Z,100555.94
2022-10-13T08:02:39.040Z,100554.33
2022-10-13T08:05:05.865Z,100552.71
2022-10-13T08:07:32.609Z,100551.28
2022-10-13T08:09:59.294Z,100550.06
2022-10-13T08:12:26.037Z,100548.80
2022-10-13T08:14:52.708Z,100549.68
2022-10-13T08:17:19.639Z,100548.30
2022-10-13T08:19:46.566Z,100549.64
2022-10-13T08:22:13.270Z,100550.42
2022-10-13T08:24:39.962Z,100550.69
2022-10-13T08:27:06.724Z,100548.40
2022-10-13T08:29:35.633Z,100544.90
2022-10-13T08:32:02.460Z,100550.23
2022-10-13T08:34:29.465Z,100549.69
2022-10-13T08:36:57.364Z,100547.23
2022-10-13T08:39:24.348Z,100546.36
2022-10-13T08:41:51.340Z,100548.19
2022-10-13T08:45:06.384Z,100546.90
2022-10-13T08:47:44.948Z,100545.04
2022-10-13T08:50:14.447Z,100546.63
2022-10-13T08:52:54.109Z,100544.38
2022-10-13T08:55:29.859Z,100545.98
2022-10-13T08:57:57.014Z,100549.79
2022-10-13T09:00:27.135Z,100549.83
2022-10-13T09:02:54.256Z,100546.43
2022-10-13T09:05:40.561Z,100550.52
2022-10-13T09:08:12.485Z,100551.13
2022-10-13T09:11:00.172Z,100553.87
2022-10-13T09:13:27.581Z,100557.01
2022-10-13T09:15:56.744Z,100559.60
2022-10-13T09:18:30.668Z,100555.70
2022-10-13T09:21:21.259Z,100555.67
2022-10-13T09:23:50.208Z,100554.52
2022-10-13T09:26:22.047Z,100551.80
2022-10-13T09:28:49.563Z,100550.85
2022-10-13T09:31:35.797Z,100550.83
2022-10-13T09:34:12.374Z,100548.05
2022-10-13T09:36:39.359Z,100549.67
2022-10-13T09:39:16.160Z,100546.20
2022-10-13T09:41:44.725Z,100543.38
2022-10-13T09:44:18.767Z,100548.70
2022-10-13T09:46:51.748Z,100543.48
2022-10-13T09:49:36.431Z,100545.58
2022-10-13T09:52:14.578Z,100541.84
2022-10-13T09:54:45.370Z,100540.38
2022-10-13T09:57:17.540Z,100539.03
2022-10-13T09:59:50.321Z,100537.89
2022-10-13T10:02:29.448Z,100532.17
2022-10-13T10:04:58.467Z,100532.80
2022-10-13T10:07:27.339Z,100530.13
2022-10-13T10:10:01.026Z,100530.33
2022-10-13T10:12:29.694Z,100525.92
2022-10-13T10:14:56.735Z,100523.33
2022-10-13T10:17:35.071Z,100527.34
2022-10-13T10:20:14.452Z,100526.42
2022-10-13T10:23:01.155Z,100521.55
2022-10-13T10:25:39.500Z,100530.19
2022-10-13T10:28:44.343Z,100523.67
2022-10-13T10:31:30.822Z,100521.02
2022-10-13T10:34:14.839Z,100519.80
2022-10-13T10:36:52.817Z,100516.91
2022-10-13T10:39:33.521Z,100511.42
2022-10-13T10:42:04.434Z,100514.63
2022-10-13T10:44:33.651Z,100510.88
2022-10-13T10:47:09.844Z,100508.29
2022-10-13T10:49:39.345Z,100508.62
2022-10-13T10:52:08.363Z,100511.30
2022-10-13T10:54:49.106Z,100504.70
2022-10-13T10:57:26.750Z,100504.88
2022-10-13T11:00:07.421Z,100506.27
2022-10-13T11:02:52.199Z,100505.27
2022-10-13T11:05:19.073Z,100503.33
2022-10-13T11:07:46.630Z,100508.84
2022-10-13T11:10:13.460Z,100508.86
2022-10-13T11:12:52.562Z,100507.82
2022-10-13T11:15:24.373Z,100503.95
2022-10-13T11:17:51.431Z,100507.46
2022-10-13T11:20:21.280Z,100503.64
2022-10-13T11:23:00.444Z,100500.91
2022-10-13T11:25:46.726Z,100503.48
2022-10-13T11:28:22.940Z,100502.33
2022-10-13T11:30:51.072Z,100502.62
2022-10-13T11:33:39.734Z,100503.33
2022-10-13T11:36:43.972Z,100498.75
2022-10-13T11:39:27.709Z,100500.08
2022-10-13T11:41:57.611Z,100501.69
2022-10-13T11:44:46.175Z,100503.14
2022-10-13T11:47:58.124Z,100500.20
2022-10-13T11:50:39.732Z,100502.00
2022-10-13T11:53:32.646Z,100498.30
2022-10-13T11:56:01.629Z,100494.34
2022-10-13T11:58:32.212Z,100491.02
2022-10-13T12:01:02.209Z,100489.75
2022-10-13T12:03:31.290Z,100487.50
2022-10-13T12:06:01.121Z,100487.42
2022-10-13T12:08:28.060Z,100487.96
2022-10-13T12:10:57.310Z,100486.30
2022-10-13T12:13:25.912Z,100479.52
2022-10-13T12:16:05.286Z,100474.65
2022-10-13T12:18:34.343Z,100474.73
2022-10-13T12:21:03.233Z,100471.30
2022-10-13T12:23:31.334Z,100470.89
2022-10-13T12:25:58.855Z,100469.83
2022-10-13T12:28:31.110Z,100468.16
2022-10-13T12:30:59.673Z,100471.46
2022-10-13T12:33:35.586Z,100469.38
2022-10-13T12:36:22.584Z,100471.39
2022-10-13T12:38:50.890Z,100468.83
2022-10-13T12:41:19.296Z,100468.25
2022-10-13T12:43:46.074Z,100467.81
2022-10-13T12:46:12.730Z,100463.01
2022-10-13T12:48:40.314Z,100462.81
2022-10-13T12:51:16.406Z,100461.82
2022-10-13T12:53:44.231Z,100461.10
2022-10-13T12:56:19.837Z,100462.89
2022-10-13T12:58:46.611Z,100459.45
2022-10-13T13:01:13.245Z,100462.14
2022-10-13T13:03:40.689Z,100459.08
2022-10-13T13:06:14.346Z,100458.33
2022-10-13T13:08:42.037Z,100456.90
2022-10-13T13:11:32.961Z,100456.29
2022-10-13T13:14:25.560Z,100453.59
2022-10-13T13:17:06.252Z,100454.48
2022-10-13T13:19:34.676Z,100454.71
2022-10-13T13:22:01.797Z,100448.49
2022-10-13T13:24:39.247Z,100448.08
2022-10-13T13:27:18.757Z,100449.10
2022-10-13T13:29:45.772Z,100446.67
2022-10-13T13:32:14.032Z,100442.90
2022-10-13T13:34:40.960Z,100440.33
2022-10-13T13:37:35.533Z,100439.08
2022-10-13T13:40:02.473Z,100439.78
2022-10-13T13:42:29.423Z,100437.92
2022-10-13T13:44:56.419Z,100436.73
2022-10-13T13:47:24.558Z,100438.21
2022-10-13T13:49:53.558Z,100437.36
2022-10-13T13:52:21.974Z,100435.05
2022-10-13T13:54:49.175Z,100434.98
2022-10-13T13:57:16.094Z,100437.60
2022-10-13T13:59:42.884Z,100440.04
2022-10-13T14:02:13.730Z,100442.23
2022-10-13T14:04:40.700Z,100437.75
2022-10-13T14:07:07.506Z,100432.82
2022-10-13T14:09:34.228Z,100432.86
2022-10-13T14:12:00.886Z,100433.80
2022-10-13T14:14:30.270Z,100433.20
2022-10-13T14:16:57.774Z,100430.64
2022-10-13T14:19:24.476Z,100428.43
2022-10-13T14:21:51.111Z,100425.73
2022-10-13T14:24:18.666Z,100426.43
2022-10-13T14:26:45.375Z,100425.88
2022-10-13T14:29:12.090Z,100424.38
2022-10-13T14:31:38.902Z,100423.89
2022-10-13T14:34:05.507Z,100425.05
2022-10-13T14:36:32.630Z,100424.17
2022-10-13T14:38:59.338Z,100421.83
2022-10-13T14:41:26.269Z,100422.36
2022-10-13T14:43:54.596Z,100421.69
2022-10-13T14:46:21.467Z,100420.67
2022-10-13T14:48:48.190Z,100416.67
2022-10-13T14:51:28.069Z,100418.33
2022-10-13T14:53:55.091Z,100421.48
2022-10-13T14:56:23.403Z,100421.70
2022-10-13T14:58:54.011Z,100423.12
2022-10-13T15:01:20.786Z,100418.52
2022-10-13T15:03:47.528Z,100418.91
2022-10-13T15:06:15.708Z,100419.61
2022-10-13T15:08:42.693Z,100417.79
2022-10-13T15:11:09.517Z,100415.16
2022-10-13T15:13:36.227Z,100412.82
2022-10-13T15:16:04.855Z,100414.10
2022-10-13T15:18:32.055Z,100414.59
2022-10-13T15:20:58.839Z,100411.41
2022-10-13T15:23:25.437Z,100417.83
2022-10-13T15:25:59.270Z,100417.15
2022-10-13T15:28:28.655Z,100420.33
2022-10-13T15:30:55.562Z,100420.45
2022-10-13T15:33:22.546Z,100424.06
2022-10-13T15:35:50.151Z,100428.07
2022-10-13T15:38:17.559Z,100429.08
2022-10-13T15:40:44.240Z,100431.09
2022-10-13T15:43:10.881Z,100428.70
2022-10-13T15:45:37.616Z,100430.88
2022-10-13T15:48:07.799Z,100433.05
2022-10-13T15:50:34.746Z,100430.65
2022-10-13T15:53:01.449Z,100427.66
2022-10-13T15:55:28.777Z,100434.89
2022-10-13T15:57:55.478Z,100436.59
2022-10-13T16:00:22.091Z,100436.28
2022-10-13T16:02:49.866Z,100438.41
2022-10-13T16:05:16.760Z,100443.13
2022-10-13T16:07:43.405Z,100439.42
2022-10-13T16:10:12.223Z,100439.09
2022-10-13T16:12:39.235Z,100434.30
2022-10-13T16:15:06.890Z,100440.63
2022-10-13T16:17:33.651Z,100441.13
2022-10-13T16:20:00.449Z,100437.56
2022-10-13T16:22:27.218Z,100436.91
2022-10-13T16:24:53.929Z,100437.09
2022-10-13T16:27:20.694Z,100436.20
2022-10-13T16:29:47.260Z,100437.08
2022-10-13T16:32:13.964Z,100439.10
2022-10-13T16:34:40.651Z,100436.92
2022-10-13T16:37:07.431Z,100435.48
2022-10-13T16:39:34.941Z,100439.10
2022-10-13T16:42:03.284Z,100439.62
2022-10-13T16:44:29.938Z,100437.33
2022-10-13T16:46:58.019Z,100437.17
2022-10-13T16:49:26.085Z,100436.06
2022-10-13T16:51:52.850Z,100432.95
2022-10-13T16:54:19.527Z,100435.73
2022-10-13T16:56:46.954Z,100432.59
2022-10-13T17:02:05.073Z,100432.70
2022-10-13T17:04:31.817Z,100438.50
2022-10-13T17:06:58.458Z,100433.79
2022-10-13T17:09:25.152Z,100433.80
2022-10-13T17:11:51.934Z,100430.43
2022-10-13T17:14:18.671Z,100430.38
2022-10-13T17:16:45.503Z,100428.97
2022-10-13T17:19:12.251Z,100431.27
2022-10-13T17:21:39.196Z,100432.66
2022-10-13T17:24:08.463Z,100432.01
2022-10-13T17:26:35.147Z,100434.61
2022-10-13T17:29:02.233Z,100428.67
2022-10-13T17:31:29.085Z,100428.80
2022-10-13T17:33:55.721Z,100426.36
2022-10-13T17:36:24.792Z,100426.52
2022-10-13T17:38:51.790Z,100424.94
2022-10-13T17:41:18.822Z,100425.35
2022-10-13T17:43:48.868Z,100424.17
2022-10-13T17:46:39.498Z,100424.27
2022-10-13T17:49:07.515Z,100423.56
2022-10-13T17:51:34.295Z,100418.52
2022-10-13T17:54:00.986Z,100421.42
2022-10-13T17:56:28.051Z,100420.04
2022-10-13T17:58:55.182Z,100422.91
2022-10-13T18:01:26.287Z,100424.24
2022-10-13T18:03:54.465Z,100426.12
2022-10-13T18:06:32.619Z,100428.31
2022-10-13T18:09:05.939Z,100423.82
2022-10-13T18:11:33.996Z,100424.38
2022-10-13T18:14:00.844Z,100420.90
2022-10-13T18:16:27.570Z,100423.86
2022-10-13T18:18:54.394Z,100424.15
2022-10-13T18:21:27.702Z,100423.77
2022-10-13T18:23:55.728Z,100426.54
2022-10-13T18:26:22.748Z,100423.70
2022-10-13T18:28:49.837Z,100425.21
2022-10-13T18:31:32.273Z,100432.23
2022-10-13T18:34:00.777Z,100432.48
2022-10-13T18:36:29.490Z,100429.42
2022-10-13T18:39:00.845Z,100428.77
2022-10-13T18:41:27.635Z,100433.70
2022-10-13T18:43:54.881Z,100432.33
2022-10-13T18:46:22.988Z,100429.95
2022-10-13T18:48:50.242Z,100435.35
2022-10-13T18:51:17.360Z,100436.05
2022-10-13T18:53:46.966Z,100433.95
2022-10-13T18:56:15.619Z,100435.18
2022-10-13T18:58:42.558Z,100438.95
2022-10-13T19:01:11.038Z,100437.52
2022-10-13T19:03:38.738Z,100439.55
2022-10-13T19:06:09.283Z,100437.77
2022-10-13T19:08:36.176Z,100441.55
2022-10-13T19:11:09.986Z,100441.20
2022-10-13T19:13:36.837Z,100443.30
2022-10-13T19:16:03.502Z,100443.30
2022-10-13T19:18:30.224Z,100446.36
2022-10-13T19:20:56.975Z,100446.41
2022-10-13T19:23:24.327Z,100445.15
2022-10-13T19:25:51.092Z,100446.66
2022-10-13T19:28:17.918Z,100446.16
2022-10-13T19:30:44.732Z,100445.78
2022-10-13T19:33:11.381Z,100442.98
2022-10-13T19:35:48.060Z,100441.87
2022-10-13T19:38:15.349Z,100441.75
2022-10-13T19:40:43.166Z,100444.02
2022-10-13T19:43:10.246Z,100447.61
2022-10-13T19:45:37.051Z,100446.18
2022-10-13T19:48:07.223Z,100451.98
2022-10-13T19:50:33.861Z,100449.59
2022-10-13T19:53:00.574Z,100448.45
2022-10-13T19:55:27.197Z,100450.77
2022-10-13T19:57:54.769Z,100453.55
2022-10-13T20:00:21.504Z,100451.08
2022-10-13T20:02:48.335Z,100454.63
2022-10-13T20:05:15.055Z,100450.46
2022-10-13T20:07:41.711Z,100452.55
2022-10-13T20:10:08.461Z,100449.51
2022-10-13T20:12:37.380Z,100454.31
2022-10-13T20:15:04.296Z,100457.67
2022-10-13T20:17:30.984Z,100457.67
2022-10-13T20:19:57.781Z,100456.41
2022-10-13T20:22:24.349Z,100453.40
2022-10-13T20:24:51.082Z,100454.36
2022-10-13T20:27:17.770Z,100453.91
2022-10-13T20:29:44.453Z,100454.95
2022-10-13T20:32:11.210Z,100455.59
2022-10-13T20:34:37.800Z,100456.44
2022-10-13T20:37:04.542Z,100458.74
2022-10-13T20:39:31.200Z,100458.27
2022-10-13T20:41:57.899Z,100456.06
2022-10-13T20:44:24.698Z,100454.08
2022-10-13T20:46:51.318Z,100449.54
2022-10-13T20:49:21.463Z,100449.02
2022-10-13T20:51:48.138Z,100450.43
2022-10-13T20:54:15.050Z,100452.66
2022-10-13T20:56:41.778Z,100454.75
2022-10-13T20:59:10.757Z,100454.24
2022-10-13T21:01:37.684Z,100456.12
2022-10-13T21:04:04.581Z,100457.08
2022-10-13T21:06:31.181Z,100458.44
2022-10-13T21:09:00.240Z,100460.60
2022-10-13T21:11:26.911Z,100459.63
2022-10-13T21:13:54.130Z,100455.08
2022-10-13T21:16:29.060Z,100455.20
2022-10-13T21:18:56.512Z,100455.08
2022-10-13T21:21:25.112Z,100454.42
2022-10-13T21:23:52.631Z,100450.37
2022-10-13T21:26:21.998Z,100451.24
2022-10-13T21:28:49.402Z,100453.38
2022-10-13T21:31:16.480Z,100450.37
2022-10-13T21:33:43.363Z,100453.30
2022-10-13T21:36:12.289Z,100452.38
2022-10-13T21:38:41.816Z,100454.73
2022-10-13T21:41:09.558Z,100452.16
2022-10-13T21:43:36.251Z,100454.89
2022-10-13T21:46:12.978Z,100453.39
2022-10-13T21:48:43.305Z,100454.14
2022-10-13T21:51:18.222Z,100455.83
2022-10-13T21:53:52.620Z,100454.23
2022-10-13T21:56:19.619Z,100453.52
2022-10-13T21:58:46.524Z,100456.61
2022-10-13T22:01:13.364Z,100456.66
2022-10-13T22:03:41.658Z,100456.75
2022-10-13T22:06:18.250Z,100459.05
2022-10-13T22:08:46.264Z,100455.08
2022-10-13T22:11:13.984Z,100456.16
2022-10-13T22:13:40.615Z,100454.45
2022-10-13T22:16:09.416Z,100454.74
2022-10-13T22:18:40.878Z,100453.91
2022-10-13T22:21:09.029Z,100451.66
2022-10-13T22:23:35.758Z,100450.25
2022-10-13T22:26:02.371Z,100454.16
2022-10-13T22:28:32.282Z,100452.73
2022-10-13T22:31:05.722Z,100452.76
2022-10-13T22:33:33.805Z,100455.48
2022-10-13T22:36:00.503Z,100453.63
2022-10-13T22:38:27.249Z,100452.66
2022-10-13T22:40:53.890Z,100457.39
2022-10-13T22:43:20.611Z,100455.40
2022-10-13T22:45:53.339Z,100457.54
2022-10-13T22:48:20.049Z,100459.25
2022-10-13T22:50:46.782Z,100459.18
2022-10-13T22:53:13.400Z,100459.46
2022-10-13T22:55:40.737Z,100458.84
2022-10-13T22:58:07.670Z,100458.45
2022-10-13T23:00:37.783Z,100462.36
2022-10-13T23:03:04.951Z,100462.80
2022-10-13T23:05:31.801Z,100458.80
2022-10-13T23:07:58.409Z,100457.16
2022-10-13T23:10:25.185Z,100455.25
2022-10-13T23:12:51.859Z,100455.36
2022-10-13T23:15:18.532Z,100453.80
2022-10-13T23:17:45.225Z,100455.11
2022-10-13T23:20:12.126Z,100459.20
2022-10-13T23:22:38.813Z,100458.02
2022-10-13T23:25:05.621Z,100460.06
2022-10-13T23:27:32.337Z,100458.16
2022-10-13T23:29:59.027Z,100458.80
2022-10-13T23:32:25.641Z,100460.55
2022-10-13T23:34:52.319Z,100459.66
2022-10-13T23:37:19.682Z,100455.26
2022-10-13T23:39:46.733Z,100453.50
2022-10-13T23:42:13.395Z,100450.73
2022-10-13T23:44:40.084Z,100452.98
2022-10-13T23:47:06.686Z,100451.56
2022-10-13T23:49:33.377Z,100451.60
2022-10-13T23:52:00.007Z,100449.23
2022-10-13T23:54:26.709Z,100446.39
2022-10-13T23:56:53.421Z,100444.59
2022-10-13T23:59:20.091Z,100444.00
